sensor_id;sensor_type;location;lat;lon;timestamp;pressure;altitude;pressure_sealevel;temperature;humidity
51687;BME280;37774;52.192;4.584;2023-08-31T00:02:26;100873.03;;;12.60;100.00
51687;BME280;37774;52.192;4.584;2023-08-31T00:05:11;100910.84;;;12.87;100.00
51687;BME280;37774;52.192;4.584;2023-08-31T00:07:57;100922.59;;;13.11;100.00
51687;BME280;37774;52.192;4.584;2023-08-31T00:10:42;100913.94;;;13.11;100.00
51687;BME280;37774;52.192;4.584;2023-08-31T00:13:29;100941.69;;;13.15;100.00
51687;BME280;37774;52.192;4.584;2023-08-31T00:16:15;100895.03;;;12.96;100.00
51687;BME280;37774;52.192;4.584;2023-08-31T00:19:00;100934.59;;;13.23;100.00
51687;BME280;37774;52.192;4.584;2023-08-31T00:21:46;100926.59;;;13.34;100.00
51687;BME280;37774;52.192;4.584;2023-08-31T00:24:32;100899.22;;;13.07;100.00
51687;BME280;37774;52.192;4.584;2023-08-31T00:27:20;100918.03;;;13.26;100.00
51687;BME280;37774;52.192;4.584;2023-08-31T00:30:07;100912.06;;;13.19;100.00
51687;BME280;37774;52.192;4.584;2023-08-31T00:32:54;100908.66;;;13.12;100.00
51687;BME280;37774;52.192;4.584;2023-08-31T00:35:43;100907.06;;;13.05;100.00
51687;BME280;37774;52.192;4.584;2023-08-31T00:38:29;100850.25;;;12.71;100.00
51687;BME280;37774;52.192;4.584;2023-08-31T00:41:14;100850.25;;;12.71;100.00
51687;BME280;37774;52.192;4.584;2023-08-31T00:44:00;100863.28;;;12.71;100.00
51687;BME280;37774;52.192;4.584;2023-08-31T00:46:48;100914.88;;;13.05;100.00
51687;BME280;37774;52.192;4.584;2023-08-31T00:49:35;100901.41;;;12.80;100.00
51687;BME280;37774;52.192;4.584;2023-08-31T00:52:21;100955.13;;;12.90;100.00
51687;BME280;37774;52.192;4.584;2023-08-31T00:55:07;100917.94;;;12.77;100.00
51687;BME280;37774;52.192;4.584;2023-08-31T00:57:53;100921.53;;;12.70;100.00
51687;BME280;37774;52.192;4.584;2023-08-31T01:00:44;100919.00;;;12.64;100.00
51687;BME280;37774;52.192;4.584;2023-08-31T01:03:38;100912.69;;;12.80;100.00
51687;BME280;37774;52.192;4.584;2023-08-31T01:06:47;100916.13;;;12.84;100.00
51687;BME280;37774;52.192;4.584;2023-08-31T01:09:40;100922.88;;;12.96;100.00
51687;BME280;37774;52.192;4.584;2023-08-31T01:12:34;100910.53;;;13.06;100.00
51687;BME280;37774;52.192;4.584;2023-08-31T01:15:22;100868.53;;;12.68;100.00
51687;BME280;37774;52.192;4.584;2023-08-31T01:18:09;100922.81;;;12.99;100.00
51687;BME280;37774;52.192;4.584;2023-08-31T01:21:00;100858.00;;;12.74;100.00
51687;BME280;37774;52.192;4.584;2023-08-31T01:23:55;100920.59;;;13.29;100.00
51687;BME280;37774;52.192;4.584;2023-08-31T01:26:41;100883.16;;;13.30;100.00
51687;BME280;37774;52.192;4.584;2023-08-31T01:29:29;100869.22;;;13.31;100.00
51687;BME280;37774;52.192;4.584;2023-08-31T01:32:15;100940.06;;;13.61;100.00
51687;BME280;37774;52.192;4.584;2023-08-31T01:35:02;100742.91;;;12.46;100.00
51687;BME280;37774;52.192;4.584;2023-08-31T01:37:51;100931.50;;;13.53;100.00
51687;BME280;37774;52.192;4.584;2023-08-31T01:40:44;100922.97;;;13.43;100.00
51687;BME280;37774;52.192;4.584;2023-08-31T01:43:32;100899.84;;;13.21;100.00
51687;BME280;37774;52.192;4.584;2023-08-31T01:46:19;100920.72;;;13.20;100.00
51687;BME280;37774;52.192;4.584;2023-08-31T01:49:05;100887.19;;;12.98;100.00
51687;BME280;37774;52.192;4.584;2023-08-31T01:51:51;100925.38;;;13.02;100.00
51687;BME280;37774;52.192;4.584;2023-08-31T01:54:36;100925.16;;;13.16;100.00
51687;BME280;37774;52.192;4.584;2023-08-31T01:57:23;100855.31;;;12.80;100.00
51687;BME280;37774;52.192;4.584;2023-08-31T02:00:10;100902.81;;;12.99;100.00
51687;BME280;37774;52.192;4.584;2023-08-31T02:02:56;100935.41;;;13.27;100.00
51687;BME280;37774;52.192;4.584;2023-08-31T02:05:41;100862.25;;;12.81;100.00
51687;BME280;37774;52.192;4.584;2023-08-31T02:08:26;100943.44;;;13.14;100.00
51687;BME280;37774;52.192;4.584;2023-08-31T02:11:12;100890.94;;;12.81;100.00
51687;BME280;37774;52.192;4.584;2023-08-31T02:13:59;100867.41;;;12.86;100.00
51687;BME280;37774;52.192;4.584;2023-08-31T02:16:44;100930.22;;;13.24;100.00
51687;BME280;37774;52.192;4.584;2023-08-31T02:19:29;100936.19;;;13.32;100.00
51687;BME280;37774;52.192;4.584;2023-08-31T02:22:15;100935.06;;;13.49;100.00
51687;BME280;37774;52.192;4.584;2023-08-31T02:25:00;100910.00;;;13.37;100.00
51687;BME280;37774;52.192;4.584;2023-08-31T02:27:46;100872.25;;;13.06;100.00
51687;BME280;37774;52.192;4.584;2023-08-31T02:30:33;100932.72;;;13.32;100.00
51687;BME280;37774;52.192;4.584;2023-08-31T02:33:18;100844.91;;;12.79;100.00
51687;BME280;37774;52.192;4.584;2023-08-31T02:36:04;100892.28;;;13.04;100.00
51687;BME280;37774;52.192;4.584;2023-08-31T02:38:51;100896.47;;;13.14;100.00
51687;BME280;37774;52.192;4.584;2023-08-31T02:41:37;100842.16;;;12.88;100.00
51687;BME280;37774;52.192;4.584;2023-08-31T02:44:22;100864.97;;;13.25;100.00
51687;BME280;37774;52.192;4.584;2023-08-31T02:47:09;100863.19;;;13.29;100.00
51687;BME280;37774;52.192;4.584;2023-08-31T02:49:55;100919.84;;;13.71;100.00
51687;BME280;37774;52.192;4.584;2023-08-31T02:52:40;100884.88;;;13.31;100.00
51687;BME280;37774;52.192;4.584;2023-08-31T02:55:26;100909.50;;;13.65;100.00
51687;BME280;37774;52.192;4.584;2023-08-31T02:58:11;100842.81;;;13.48;100.00
51687;BME280;37774;52.192;4.584;2023-08-31T03:01:06;100825.97;;;13.18;100.00
51687;BME280;37774;52.192;4.584;2023-08-31T03:03:53;100911.22;;;14.11;100.00
51687;BME280;37774;52.192;4.584;2023-08-31T03:06:38;100925.59;;;14.31;100.00
51687;BME280;37774;52.192;4.584;2023-08-31T03:09:24;100957.84;;;14.31;100.00
51687;BME280;37774;52.192;4.584;2023-08-31T03:12:09;100858.09;;;13.20;100.00
51687;BME280;37774;52.192;4.584;2023-08-31T03:14:55;100849.03;;;12.91;100.00
51687;BME280;37774;52.192;4.584;2023-08-31T03:17:40;100938.47;;;13.52;100.00
51687;BME280;37774;52.192;4.584;2023-08-31T03:20:27;100890.34;;;13.17;100.00
51687;BME280;37774;52.192;4.584;2023-08-31T03:23:13;100706.22;;;12.05;100.00
51687;BME280;37774;52.192;4.584;2023-08-31T03:25:58;100878.91;;;13.24;100.00
51687;BME280;37774;52.192;4.584;2023-08-31T03:28:43;100818.69;;;12.88;100.00
51687;BME280;37774;52.192;4.584;2023-08-31T03:31:29;100819.41;;;12.95;100.00
51687;BME280;37774;52.192;4.584;2023-08-31T03:34:15;100878.00;;;13.27;100.00
51687;BME280;37774;52.192;4.584;2023-08-31T03:37:01;100916.50;;;13.64;100.00
51687;BME280;37774;52.192;4.584;2023-08-31T03:39:47;100861.25;;;13.39;100.00
51687;BME280;37774;52.192;4.584;2023-08-31T03:42:33;100847.47;;;13.30;100.00
51687;BME280;37774;52.192;4.584;2023-08-31T03:45:18;100855.97;;;13.43;100.00
51687;BME280;37774;52.192;4.584;2023-08-31T03:48:04;100866.31;;;13.50;100.00
51687;BME280;37774;52.192;4.584;2023-08-31T03:50:51;100892.69;;;13.80;100.00
51687;BME280;37774;52.192;4.584;2023-08-31T03:53:38;100904.66;;;13.90;100.00
51687;BME280;37774;52.192;4.584;2023-08-31T03:56:23;100908.88;;;13.97;100.00
51687;BME280;37774;52.192;4.584;2023-08-31T03:59:09;100873.06;;;13.58;100.00
51687;BME280;37774;52.192;4.584;2023-08-31T04:01:54;100944.09;;;13.79;100.00
51687;BME280;37774;52.192;4.584;2023-08-31T04:04:40;100914.53;;;13.76;100.00
51687;BME280;37774;52.192;4.584;2023-08-31T04:07:25;100874.22;;;13.45;100.00
51687;BME280;37774;52.192;4.584;2023-08-31T04:10:12;100846.59;;;13.32;100.00
51687;BME280;37774;52.192;4.584;2023-08-31T04:12:58;100841.34;;;13.33;100.00
51687;BME280;37774;52.192;4.584;2023-08-31T04:15:43;100890.41;;;13.63;100.00
51687;BME280;37774;52.192;4.584;2023-08-31T04:18:29;100879.31;;;13.51;100.00
51687;BME280;37774;52.192;4.584;2023-08-31T04:21:14;100817.94;;;13.28;100.00
51687;BME280;37774;52.192;4.584;2023-08-31T04:24:02;100858.69;;;13.37;100.00
51687;BME280;37774;52.192;4.584;2023-08-31T04:26:49;100919.16;;;13.61;100.00
51687;BME280;37774;52.192;4.584;2023-08-31T04:29:35;100893.41;;;13.42;100.00
51687;BME280;37774;52.192;4.584;2023-08-31T04:32:21;100903.78;;;13.46;100.00
51687;BME280;37774;52.192;4.584;2023-08-31T04:35:07;100919.56;;;13.38;100.00
51687;BME280;37774;52.192;4.584;2023-08-31T04:37:53;100852.50;;;12.93;100.00
51687;BME280;37774;52.192;4.584;2023-08-31T04:40:38;100892.91;;;13.19;100.00
51687;BME280;37774;52.192;4.584;2023-08-31T04:43:25;100940.38;;;13.41;100.00
51687;BME280;37774;52.192;4.584;2023-08-31T04:46:11;100933.47;;;13.38;100.00
51687;BME280;37774;52.192;4.584;2023-08-31T04:48:56;100872.81;;;13.24;100.00
51687;BME280;37774;52.192;4.584;2023-08-31T04:51:44;100836.72;;;12.99;100.00
51687;BME280;37774;52.192;4.584;2023-08-31T04:54:29;100962.31;;;13.81;100.00
51687;BME280;37774;52.192;4.584;2023-08-31T04:57:14;100908.91;;;13.52;100.00
51687;BME280;37774;52.192;4.584;2023-08-31T05:00:03;100960.59;;;13.80;100.00
51687;BME280;37774;52.192;4.584;2023-08-31T05:02:48;100891.97;;;13.23;100.00
51687;BME280;37774;52.192;4.584;2023-08-31T05:05:34;100882.59;;;13.12;100.00
51687;BME280;37774;52.192;4.584;2023-08-31T05:08:19;100949.06;;;13.43;100.00
51687;BME280;37774;52.192;4.584;2023-08-31T05:11:05;100954.47;;;13.32;100.00
51687;BME280;37774;52.192;4.584;2023-08-31T05:13:50;100958.75;;;13.35;100.00
51687;BME280;37774;52.192;4.584;2023-08-31T05:16:37;100834.91;;;12.51;100.00
51687;BME280;37774;52.192;4.584;2023-08-31T05:19:23;100944.16;;;13.23;100.00
51687;BME280;37774;52.192;4.584;2023-08-31T05:22:10;100896.75;;;12.97;100.00
51687;BME280;37774;52.192;4.584;2023-08-31T05:24:58;100970.63;;;13.54;100.00
51687;BME280;37774;52.192;4.584;2023-08-31T05:27:46;100928.25;;;13.38;100.00
51687;BME280;37774;52.192;4.584;2023-08-31T05:30:32;100921.13;;;13.48;100.00
51687;BME280;37774;52.192;4.584;2023-08-31T05:33:20;100940.00;;;13.64;100.00
51687;BME280;37774;52.192;4.584;2023-08-31T05:36:06;100918.47;;;13.51;100.00
51687;BME280;37774;52.192;4.584;2023-08-31T05:38:52;100944.28;;;13.67;100.00
51687;BME280;37774;52.192;4.584;2023-08-31T05:41:40;100896.00;;;13.41;100.00
51687;BME280;37774;52.192;4.584;2023-08-31T05:44:26;100939.91;;;13.69;100.00
51687;BME280;37774;52.192;4.584;2023-08-31T05:47:11;100942.38;;;13.75;100.00
51687;BME280;37774;52.192;4.584;2023-08-31T05:49:58;100963.97;;;13.85;100.00
51687;BME280;37774;52.192;4.584;2023-08-31T05:52:43;101005.28;;;14.11;100.00
51687;BME280;37774;52.192;4.584;2023-08-31T05:55:29;100896.78;;;13.48;100.00
51687;BME280;37774;52.192;4.584;2023-08-31T05:58:14;101014.03;;;14.10;100.00
51687;BME280;37774;52.192;4.584;2023-08-31T06:00:59;101004.78;;;13.92;100.00
51687;BME280;37774;52.192;4.584;2023-08-31T06:03:45;100805.91;;;12.71;100.00
51687;BME280;37774;52.192;4.584;2023-08-31T06:06:32;101031.06;;;14.28;100.00
51687;BME280;37774;52.192;4.584;2023-08-31T06:09:17;100934.31;;;13.39;100.00
51687;BME280;37774;52.192;4.584;2023-08-31T06:12:04;100996.16;;;13.88;100.00
51687;BME280;37774;52.192;4.584;2023-08-31T06:14:50;101037.38;;;14.18;100.00
51687;BME280;37774;52.192;4.584;2023-08-31T06:17:36;101021.56;;;14.24;100.00
51687;BME280;37774;52.192;4.584;2023-08-31T06:20:22;101026.53;;;14.38;100.00
51687;BME280;37774;52.192;4.584;2023-08-31T06:23:10;100866.47;;;13.39;100.00
51687;BME280;37774;52.192;4.584;2023-08-31T06:25:56;100879.38;;;13.48;100.00
51687;BME280;37774;52.192;4.584;2023-08-31T06:29:06;100713.94;;;12.12;100.00
51687;BME280;37774;52.192;4.584;2023-08-31T06:32:06;100849.31;;;13.27;100.00
51687;BME280;37774;52.192;4.584;2023-08-31T06:34:51;101037.88;;;14.39;100.00
51687;BME280;37774;52.192;4.584;2023-08-31T06:37:36;100980.44;;;14.34;100.00
51687;BME280;37774;52.192;4.584;2023-08-31T06:40:24;101012.09;;;14.61;100.00
51687;BME280;37774;52.192;4.584;2023-08-31T06:43:10;101010.28;;;14.65;100.00
51687;BME280;37774;52.192;4.584;2023-08-31T06:45:55;101048.19;;;14.87;100.00
51687;BME280;37774;52.192;4.584;2023-08-31T06:48:40;101030.03;;;14.80;100.00
51687;BME280;37774;52.192;4.584;2023-08-31T06:51:26;101070.56;;;15.02;100.00
51687;BME280;37774;52.192;4.584;2023-08-31T06:54:11;101034.28;;;14.87;100.00
51687;BME280;37774;52.192;4.584;2023-08-31T06:56:58;101077.94;;;15.23;100.00
51687;BME280;37774;52.192;4.584;2023-08-31T06:59:44;101026.97;;;15.01;100.00
51687;BME280;37774;52.192;4.584;2023-08-31T07:02:31;101053.91;;;15.43;100.00
51687;BME280;37774;52.192;4.584;2023-08-31T07:05:18;101027.13;;;15.31;100.00
51687;BME280;37774;52.192;4.584;2023-08-31T07:08:09;101029.00;;;15.26;100.00
51687;BME280;37774;52.192;4.584;2023-08-31T07:10:54;101092.63;;;15.66;100.00
51687;BME280;37774;52.192;4.584;2023-08-31T07:13:44;101095.28;;;15.65;100.00
51687;BME280;37774;52.192;4.584;2023-08-31T07:16:29;101080.75;;;15.51;100.00
51687;BME280;37774;52.192;4.584;2023-08-31T07:19:14;100935.41;;;14.60;100.00
51687;BME280;37774;52.192;4.584;2023-08-31T07:22:00;101103.84;;;15.71;100.00
51687;BME280;37774;52.192;4.584;2023-08-31T07:24:46;101051.59;;;15.29;100.00
51687;BME280;37774;52.192;4.584;2023-08-31T07:27:31;101109.25;;;15.65;100.00
51687;BME280;37774;52.192;4.584;2023-08-31T07:30:18;101112.91;;;15.58;100.00
51687;BME280;37774;52.192;4.584;2023-08-31T07:33:03;101111.03;;;15.63;100.00
51687;BME280;37774;52.192;4.584;2023-08-31T07:35:49;101105.22;;;15.50;100.00
51687;BME280;37774;52.192;4.584;2023-08-31T07:38:34;101132.63;;;15.73;100.00
51687;BME280;37774;52.192;4.584;2023-08-31T07:41:20;101090.19;;;15.22;100.00
51687;BME280;37774;52.192;4.584;2023-08-31T07:44:05;101053.47;;;15.24;100.00
51687;BME280;37774;52.192;4.584;2023-08-31T07:46:52;101132.00;;;15.63;100.00
51687;BME280;37774;52.192;4.584;2023-08-31T07:49:38;101126.69;;;15.66;100.00
51687;BME280;37774;52.192;4.584;2023-08-31T07:52:23;101125.13;;;15.95;100.00
51687;BME280;37774;52.192;4.584;2023-08-31T07:55:08;101119.69;;;16.36;100.00
51687;BME280;37774;52.192;4.584;2023-08-31T07:57:54;101046.28;;;16.36;100.00
51687;BME280;37774;52.192;4.584;2023-08-31T08:00:39;101121.81;;;17.16;100.00
51687;BME280;37774;52.192;4.584;2023-08-31T08:03:26;101104.91;;;17.25;100.00
51687;BME280;37774;52.192;4.584;2023-08-31T08:06:12;101141.91;;;17.17;100.00
51687;BME280;37774;52.192;4.584;2023-08-31T08:08:57;101138.09;;;16.66;100.00
51687;BME280;37774;52.192;4.584;2023-08-31T08:11:43;101160.06;;;16.63;100.00
51687;BME280;37774;52.192;4.584;2023-08-31T08:14:28;101093.19;;;16.14;100.00
51687;BME280;37774;52.192;4.584;2023-08-31T08:17:14;101130.19;;;16.68;100.00
51687;BME280;37774;52.192;4.584;2023-08-31T08:20:02;101081.28;;;16.65;100.00
51687;BME280;37774;52.192;4.584;2023-08-31T08:22:49;101145.91;;;17.01;100.00
51687;BME280;37774;52.192;4.584;2023-08-31T08:25:36;101161.06;;;17.21;100.00
51687;BME280;37774;52.192;4.584;2023-08-31T08:28:21;101142.34;;;16.72;100.00
51687;BME280;37774;52.192;4.584;2023-08-31T08:31:07;101156.09;;;17.12;100.00
51687;BME280;37774;52.192;4.584;2023-08-31T08:33:52;100909.84;;;15.44;100.00
51687;BME280;37774;52.192;4.584;2023-08-31T08:36:39;101094.13;;;16.74;100.00
51687;BME280;37774;52.192;4.584;2023-08-31T08:39:24;101153.44;;;17.42;100.00
51687;BME280;37774;52.192;4.584;2023-08-31T08:42:10;101139.41;;;17.70;100.00
51687;BME280;37774;52.192;4.584;2023-08-31T08:44:56;101159.78;;;17.90;100.00
51687;BME280;37774;52.192;4.584;2023-08-31T08:47:42;101130.06;;;17.88;100.00
51687;BME280;37774;52.192;4.584;2023-08-31T08:50:28;101053.53;;;17.16;100.00
51687;BME280;37774;52.192;4.584;2023-08-31T08:53:17;101129.03;;;17.92;100.00
51687;BME280;37774;52.192;4.584;2023-08-31T08:56:03;101201.72;;;18.47;100.00
51687;BME280;37774;52.192;4.584;2023-08-31T08:58:48;101138.84;;;18.14;100.00
51687;BME280;37774;52.192;4.584;2023-08-31T09:01:34;101121.78;;;17.73;100.00
51687;BME280;37774;52.192;4.584;2023-08-31T09:04:21;101206.81;;;18.26;100.00
51687;BME280;37774;52.192;4.584;2023-08-31T09:07:07;101138.63;;;18.45;100.00
51687;BME280;37774;52.192;4.584;2023-08-31T09:09:54;101186.00;;;18.94;100.00
51687;BME280;37774;52.192;4.584;2023-08-31T09:12:39;101143.69;;;18.75;100.00
51687;BME280;37774;52.192;4.584;2023-08-31T09:15:25;101178.69;;;19.03;100.00
51687;BME280;37774;52.192;4.584;2023-08-31T09:18:14;101186.13;;;19.15;100.00
51687;BME280;37774;52.192;4.584;2023-08-31T09:21:00;101186.84;;;19.42;100.00
51687;BME280;37774;52.192;4.584;2023-08-31T09:23:47;101156.81;;;19.24;100.00
51687;BME280;37774;52.192;4.584;2023-08-31T09:26:43;100931.00;;;17.91;100.00
51687;BME280;37774;52.192;4.584;2023-08-31T09:29:30;101194.50;;;19.03;100.00
51687;BME280;37774;52.192;4.584;2023-08-31T09:32:16;101115.16;;;18.15;100.00
51687;BME280;37774;52.192;4.584;2023-08-31T09:35:02;101180.03;;;18.65;100.00
51687;BME280;37774;52.192;4.584;2023-08-31T09:37:55;101142.66;;;18.56;100.00
51687;BME280;37774;52.192;4.584;2023-08-31T09:40:41;101198.00;;;18.78;100.00
51687;BME280;37774;52.192;4.584;2023-08-31T09:43:28;101192.00;;;18.49;100.00
51687;BME280;37774;52.192;4.584;2023-08-31T09:46:14;101191.59;;;18.61;100.00
51687;BME280;37774;52.192;4.584;2023-08-31T09:48:59;101200.44;;;19.08;100.00
51687;BME280;37774;52.192;4.584;2023-08-31T09:51:46;101148.56;;;18.86;100.00
51687;BME280;37774;52.192;4.584;2023-08-31T09:54:33;101168.25;;;18.76;100.00
51687;BME280;37774;52.192;4.584;2023-08-31T09:57:20;101199.19;;;19.18;100.00
51687;BME280;37774;52.192;4.584;2023-08-31T10:00:10;101194.06;;;19.82;100.00
51687;BME280;37774;52.192;4.584;2023-08-31T10:03:01;101155.78;;;19.73;100.00
51687;BME280;37774;52.192;4.584;2023-08-31T10:05:49;101187.06;;;20.25;100.00
51687;BME280;37774;52.192;4.584;2023-08-31T10:08:35;101196.59;;;20.28;100.00
51687;BME280;37774;52.192;4.584;2023-08-31T10:11:21;101164.25;;;20.43;100.00
51687;BME280;37774;52.192;4.584;2023-08-31T10:14:10;101200.63;;;20.37;100.00
51687;BME280;37774;52.192;4.584;2023-08-31T10:16:57;101176.34;;;20.49;100.00
51687;BME280;37774;52.192;4.584;2023-08-31T10:19:43;101191.44;;;20.25;100.00
51687;BME280;37774;52.192;4.584;2023-08-31T10:22:28;101108.72;;;19.84;100.00
51687;BME280;37774;52.192;4.584;2023-08-31T10:25:14;101136.22;;;19.99;100.00
51687;BME280;37774;52.192;4.584;2023-08-31T10:27:59;101179.75;;;20.72;100.00
51687;BME280;37774;52.192;4.584;2023-08-31T10:31:01;101162.44;;;20.85;100.00
51687;BME280;37774;52.192;4.584;2023-08-31T10:33:55;101169.25;;;20.91;100.00
51687;BME280;37774;52.192;4.584;2023-08-31T10:36:44;101178.63;;;20.57;100.00
51687;BME280;37774;52.192;4.584;2023-08-31T10:39:37;101139.03;;;20.57;100.00
51687;BME280;37774;52.192;4.584;2023-08-31T10:42:23;101166.88;;;20.85;100.00
51687;BME280;37774;52.192;4.584;2023-08-31T10:45:09;101141.75;;;20.95;100.00
51687;BME280;37774;52.192;4.584;2023-08-31T10:48:00;101113.66;;;20.54;100.00
51687;BME280;37774;52.192;4.584;2023-08-31T10:50:47;101140.50;;;20.43;100.00
51687;BME280;37774;52.192;4.584;2023-08-31T10:53:36;101079.94;;;20.40;100.00
51687;BME280;37774;52.192;4.584;2023-08-31T10:56:21;101087.06;;;20.78;100.00
51687;BME280;37774;52.192;4.584;2023-08-31T10:59:07;101150.38;;;21.18;100.00
51687;BME280;37774;52.192;4.584;2023-08-31T11:01:54;101129.81;;;21.25;100.00
51687;BME280;37774;52.192;4.584;2023-08-31T11:04:53;101039.66;;;20.56;100.00
51687;BME280;37774;52.192;4.584;2023-08-31T11:07:41;101101.69;;;21.05;100.00
51687;BME280;37774;52.192;4.584;2023-08-31T11:10:27;101152.91;;;21.39;100.00
51687;BME280;37774;52.192;4.584;2023-08-31T11:13:16;101137.16;;;21.18;100.00
51687;BME280;37774;52.192;4.584;2023-08-31T11:16:02;101052.28;;;21.07;100.00
51687;BME280;37774;52.192;4.584;2023-08-31T11:18:48;101141.56;;;21.37;100.00
51687;BME280;37774;52.192;4.584;2023-08-31T11:21:36;101143.63;;;20.93;100.00
51687;BME280;37774;52.192;4.584;2023-08-31T11:24:23;101071.41;;;20.54;100.00
51687;BME280;37774;52.192;4.584;2023-08-31T11:27:08;101147.53;;;20.64;100.00
51687;BME280;37774;52.192;4.584;2023-08-31T11:29:54;101142.31;;;20.62;100.00
51687;BME280;37774;52.192;4.584;2023-08-31T11:32:44;101103.34;;;20.88;100.00
51687;BME280;37774;52.192;4.584;2023-08-31T11:35:33;101145.25;;;21.15;100.00
51687;BME280;37774;52.192;4.584;2023-08-31T11:38:19;101123.19;;;20.97;100.00
51687;BME280;37774;52.192;4.584;2023-08-31T11:41:06;101145.44;;;21.10;100.00
51687;BME280;37774;52.192;4.584;2023-08-31T11:43:52;101148.75;;;20.96;100.00
51687;BME280;37774;52.192;4.584;2023-08-31T11:46:39;101075.22;;;20.28;100.00
51687;BME280;37774;52.192;4.584;2023-08-31T11:49:27;101131.16;;;21.14;100.00
51687;BME280;37774;52.192;4.584;2023-08-31T11:52:13;101151.66;;;21.28;100.00
51687;BME280;37774;52.192;4.584;2023-08-31T11:54:59;101150.72;;;21.29;100.00
51687;BME280;37774;52.192;4.584;2023-08-31T11:57:50;101123.81;;;21.02;100.00
51687;BME280;37774;52.192;4.584;2023-08-31T12:00:35;101149.88;;;21.66;100.00
51687;BME280;37774;52.192;4.584;2023-08-31T12:03:21;101140.66;;;21.92;100.00
51687;BME280;37774;52.192;4.584;2023-08-31T12:06:07;101143.00;;;21.98;100.00
51687;BME280;37774;52.192;4.584;2023-08-31T12:08:52;101113.09;;;22.14;100.00
51687;BME280;37774;52.192;4.584;2023-08-31T12:11:39;101126.44;;;21.95;100.00
51687;BME280;37774;52.192;4.584;2023-08-31T12:14:27;101008.91;;;20.55;100.00
51687;BME280;37774;52.192;4.584;2023-08-31T12:17:12;101101.41;;;21.11;100.00
51687;BME280;37774;52.192;4.584;2023-08-31T12:20:02;101155.28;;;21.63;100.00
51687;BME280;37774;52.192;4.584;2023-08-31T12:22:49;101147.50;;;21.96;100.00
51687;BME280;37774;52.192;4.584;2023-08-31T12:25:35;101144.94;;;21.95;100.00
51687;BME280;37774;52.192;4.584;2023-08-31T12:28:21;101107.50;;;21.85;100.00
51687;BME280;37774;52.192;4.584;2023-08-31T12:31:08;101073.25;;;21.99;100.00
51687;BME280;37774;52.192;4.584;2023-08-31T12:33:54;101128.25;;;22.28;100.00
51687;BME280;37774;52.192;4.584;2023-08-31T12:36:39;101100.63;;;21.45;100.00
51687;BME280;37774;52.192;4.584;2023-08-31T12:39:25;101138.25;;;21.87;100.00
51687;BME280;37774;52.192;4.584;2023-08-31T12:42:11;101147.97;;;21.69;100.00
51687;BME280;37774;52.192;4.584;2023-08-31T12:44:56;101123.22;;;21.70;100.00
51687;BME280;37774;52.192;4.584;2023-08-31T12:47:43;101049.50;;;21.64;100.00
51687;BME280;37774;52.192;4.584;2023-08-31T12:50:28;101147.03;;;21.70;100.00
51687;BME280;37774;52.192;4.584;2023-08-31T12:53:14;101114.75;;;21.99;100.00
51687;BME280;37774;52.192;4.584;2023-08-31T12:55:59;101103.81;;;21.52;100.00
51687;BME280;37774;52.192;4.584;2023-08-31T12:58:45;101079.41;;;21.65;100.00
51687;BME280;37774;52.192;4.584;2023-08-31T13:01:31;101107.16;;;21.38;100.00
51687;BME280;37774;52.192;4.584;2023-08-31T13:04:21;101103.78;;;21.35;100.00
51687;BME280;37774;52.192;4.584;2023-08-31T13:07:07;101130.16;;;21.91;100.00
51687;BME280;37774;52.192;4.584;2023-08-31T13:09:53;101086.09;;;21.72;100.00
51687;BME280;37774;52.192;4.584;2023-08-31T13:12:38;101121.91;;;22.14;100.00
51687;BME280;37774;52.192;4.584;2023-08-31T13:15:23;101138.72;;;22.13;100.00
51687;BME280;37774;52.192;4.584;2023-08-31T13:18:09;101089.78;;;21.69;100.00
51687;BME280;37774;52.192;4.584;2023-08-31T13:20:56;101152.13;;;21.37;100.00
51687;BME280;37774;52.192;4.584;2023-08-31T13:23:41;101106.19;;;21.02;100.00
51687;BME280;37774;52.192;4.584;2023-08-31T13:26:28;101135.59;;;21.33;100.00
51687;BME280;37774;52.192;4.584;2023-08-31T13:29:13;101098.75;;;21.11;100.00
51687;BME280;37774;52.192;4.584;2023-08-31T13:31:59;101096.38;;;20.66;100.00
51687;BME280;37774;52.192;4.584;2023-08-31T13:34:45;101097.84;;;20.73;100.00
51687;BME280;37774;52.192;4.584;2023-08-31T13:37:32;101100.97;;;21.01;100.00
51687;BME280;37774;52.192;4.584;2023-08-31T13:40:17;101141.22;;;21.25;100.00
51687;BME280;37774;52.192;4.584;2023-08-31T13:43:03;101081.19;;;20.71;100.00
51687;BME280;37774;52.192;4.584;2023-08-31T13:45:48;101103.16;;;20.72;100.00
51687;BME280;37774;52.192;4.584;2023-08-31T13:48:34;101107.56;;;20.92;100.00
51687;BME280;37774;52.192;4.584;2023-08-31T13:51:19;101055.09;;;21.21;100.00
51687;BME280;37774;52.192;4.584;2023-08-31T13:54:07;101036.31;;;20.91;100.00
51687;BME280;37774;52.192;4.584;2023-08-31T13:56:52;101070.34;;;21.34;100.00
51687;BME280;37774;52.192;4.584;2023-08-31T13:59:38;101109.94;;;21.35;100.00
51687;BME280;37774;52.192;4.584;2023-08-31T14:02:23;101140.59;;;21.76;100.00
51687;BME280;37774;52.192;4.584;2023-08-31T14:05:09;101088.63;;;21.75;100.00
51687;BME280;37774;52.192;4.584;2023-08-31T14:07:55;101136.22;;;21.93;100.00
51687;BME280;37774;52.192;4.584;2023-08-31T14:10:42;101101.38;;;21.84;100.00
51687;BME280;37774;52.192;4.584;2023-08-31T14:13:27;101099.22;;;21.75;100.00
51687;BME280;37774;52.192;4.584;2023-08-31T14:16:13;101108.53;;;22.00;100.00
51687;BME280;37774;52.192;4.584;2023-08-31T14:18:58;101136.75;;;22.35;100.00
51687;BME280;37774;52.192;4.584;2023-08-31T14:21:47;101114.69;;;22.34;100.00